sensor_id;sensor_type;location;lat;lon;timestamp;P1;durP1;ratioP1;P2;durP2;ratioP2
60851;SDS011;48553;50.766;2.900;2022-12-05T00:03:02;58.45;;;21.58;;
60851;SDS011;48553;50.766;2.900;2022-12-05T00:06:03;66.75;;;23.48;;
60851;SDS011;48553;50.766;2.900;2022-12-05T00:09:04;56.88;;;21.90;;
60851;SDS011;48553;50.766;2.900;2022-12-05T00:12:06;65.60;;;22.50;;
60851;SDS011;48553;50.766;2.900;2022-12-05T00:15:06;59.65;;;21.33;;
60851;SDS011;48553;50.766;2.900;2022-12-05T00:18:11;63.03;;;21.10;;
60851;SDS011;48553;50.766;2.900;2022-12-05T00:21:13;64.40;;;20.52;;
60851;SDS011;48553;50.766;2.900;2022-12-05T00:24:15;61.55;;;20.80;;
60851;SDS011;48553;50.766;2.900;2022-12-05T00:27:16;56.00;;;20.00;;
60851;SDS011;48553;50.766;2.900;2022-12-05T00:30:16;57.58;;;19.38;;
60851;SDS011;48553;50.766;2.900;2022-12-05T00:33:17;55.90;;;20.40;;
60851;SDS011;48553;50.766;2.900;2022-12-05T00:36:19;57.28;;;19.50;;
60851;SDS011;48553;50.766;2.900;2022-12-05T00:39:21;51.03;;;19.35;;
60851;SDS011;48553;50.766;2.900;2022-12-05T00:42:21;46.38;;;17.77;;
60851;SDS011;48553;50.766;2.900;2022-12-05T00:45:21;47.97;;;18.40;;
60851;SDS011;48553;50.766;2.900;2022-12-05T00:48:22;49.40;;;18.50;;
60851;SDS011;48553;50.766;2.900;2022-12-05T00:51:29;45.70;;;16.65;;
60851;SDS011;48553;50.766;2.900;2022-12-05T00:54:31;50.17;;;17.55;;
60851;SDS011;48553;50.766;2.900;2022-12-05T00:57:32;49.70;;;17.63;;
60851;SDS011;48553;50.766;2.900;2022-12-05T01:00:32;53.10;;;17.17;;
60851;SDS011;48553;50.766;2.900;2022-12-05T01:03:33;41.17;;;16.25;;
60851;SDS011;48553;50.766;2.900;2022-12-05T01:06:34;46.47;;;16.98;;
60851;SDS011;48553;50.766;2.900;2022-12-05T01:09:34;47.50;;;18.08;;
60851;SDS011;48553;50.766;2.900;2022-12-05T01:12:34;49.63;;;18.75;;
60851;SDS011;48553;50.766;2.900;2022-12-05T01:15:36;50.58;;;18.02;;
60851;SDS011;48553;50.766;2.900;2022-12-05T01:18:36;49.45;;;18.13;;
60851;SDS011;48553;50.766;2.900;2022-12-05T01:21:37;46.40;;;17.45;;
60851;SDS011;48553;50.766;2.900;2022-12-05T01:24:37;51.50;;;17.52;;
60851;SDS011;48553;50.766;2.900;2022-12-05T01:27:38;50.70;;;18.40;;
60851;SDS011;48553;50.766;2.900;2022-12-05T01:30:42;47.17;;;17.52;;
60851;SDS011;48553;50.766;2.900;2022-12-05T01:33:46;52.17;;;18.10;;
60851;SDS011;48553;50.766;2.900;2022-12-05T01:36:47;45.33;;;16.83;;
60851;SDS011;48553;50.766;2.900;2022-12-05T01:39:47;47.20;;;17.48;;
60851;SDS011;48553;50.766;2.900;2022-12-05T01:42:48;44.13;;;17.67;;
60851;SDS011;48553;50.766;2.900;2022-12-05T01:45:48;48.20;;;17.38;;
60851;SDS011;48553;50.766;2.900;2022-12-05T01:48:49;44.33;;;17.17;;
60851;SDS011;48553;50.766;2.900;2022-12-05T01:51:54;47.17;;;17.77;;
60851;SDS011;48553;50.766;2.900;2022-12-05T01:55:04;42.08;;;16.58;;
60851;SDS011;48553;50.766;2.900;2022-12-05T01:58:07;45.35;;;17.60;;
60851;SDS011;48553;50.766;2.900;2022-12-05T02:01:10;48.42;;;18.15;;
60851;SDS011;48553;50.766;2.900;2022-12-05T02:04:12;42.58;;;17.02;;
60851;SDS011;48553;50.766;2.900;2022-12-05T02:07:13;44.72;;;16.70;;
60851;SDS011;48553;50.766;2.900;2022-12-05T02:10:14;46.78;;;17.25;;
60851;SDS011;48553;50.766;2.900;2022-12-05T02:30:31;46.97;;;17.80;;
60851;SDS011;48553;50.766;2.900;2022-12-05T02:33:58;45.42;;;16.75;;
60851;SDS011;48553;50.766;2.900;2022-12-05T02:37:04;44.55;;;16.38;;
60851;SDS011;48553;50.766;2.900;2022-12-05T02:40:13;46.53;;;16.85;;
60851;SDS011;48553;50.766;2.900;2022-12-05T02:46:30;49.38;;;17.00;;
60851;SDS011;48553;50.766;2.900;2022-12-05T02:49:35;48.97;;;17.10;;
60851;SDS011;48553;50.766;2.900;2022-12-05T02:52:36;45.78;;;17.63;;
60851;SDS011;48553;50.766;2.900;2022-12-05T02:55:37;45.30;;;16.50;;
60851;SDS011;48553;50.766;2.900;2022-12-05T02:58:58;44.90;;;16.98;;
60851;SDS011;48553;50.766;2.900;2022-12-05T03:02:00;43.15;;;16.60;;
60851;SDS011;48553;50.766;2.900;2022-12-05T03:05:08;44.60;;;16.95;;
60851;SDS011;48553;50.766;2.900;2022-12-05T03:08:20;42.40;;;16.50;;
60851;SDS011;48553;50.766;2.900;2022-12-05T03:11:25;44.45;;;16.88;;
60851;SDS011;48553;50.766;2.900;2022-12-05T03:14:30;41.67;;;16.30;;
60851;SDS011;48553;50.766;2.900;2022-12-05T03:17:35;42.08;;;15.85;;
60851;SDS011;48553;50.766;2.900;2022-12-05T03:20:43;44.75;;;17.08;;
60851;SDS011;48553;50.766;2.900;2022-12-05T03:23:49;43.08;;;15.85;;
60851;SDS011;48553;50.766;2.900;2022-12-05T03:30:04;44.13;;;15.98;;
60851;SDS011;48553;50.766;2.900;2022-12-05T03:33:12;40.58;;;16.25;;
60851;SDS011;48553;50.766;2.900;2022-12-05T03:36:18;45.75;;;17.02;;
60851;SDS011;48553;50.766;2.900;2022-12-05T03:39:24;44.80;;;16.80;;
60851;SDS011;48553;50.766;2.900;2022-12-05T03:42:30;43.78;;;15.63;;
60851;SDS011;48553;50.766;2.900;2022-12-05T03:45:37;43.17;;;16.25;;
60851;SDS011;48553;50.766;2.900;2022-12-05T03:52:37;45.33;;;16.25;;
60851;SDS011;48553;50.766;2.900;2022-12-05T03:55:17;44.20;;;15.98;;
60851;SDS011;48553;50.766;2.900;2022-12-05T03:58:20;43.17;;;16.20;;
60851;SDS011;48553;50.766;2.900;2022-12-05T04:01:25;45.47;;;16.60;;
60851;SDS011;48553;50.766;2.900;2022-12-05T04:04:33;46.15;;;16.20;;
60851;SDS011;48553;50.766;2.900;2022-12-05T04:07:36;42.85;;;16.15;;
60851;SDS011;48553;50.766;2.900;2022-12-05T04:10:38;47.03;;;16.42;;
60851;SDS011;48553;50.766;2.900;2022-12-05T04:13:51;43.70;;;16.30;;
60851;SDS011;48553;50.766;2.900;2022-12-05T04:16:58;44.00;;;16.23;;
60851;SDS011;48553;50.766;2.900;2022-12-05T04:20:05;39.67;;;16.02;;
60851;SDS011;48553;50.766;2.900;2022-12-05T04:23:30;42.33;;;15.88;;
60851;SDS011;48553;50.766;2.900;2022-12-05T04:26:31;42.05;;;16.52;;
60851;SDS011;48553;50.766;2.900;2022-12-05T04:29:36;42.58;;;15.88;;
60851;SDS011;48553;50.766;2.900;2022-12-05T04:32:59;38.95;;;16.10;;
60851;SDS011;48553;50.766;2.900;2022-12-05T04:39:33;42.65;;;15.45;;
60851;SDS011;48553;50.766;2.900;2022-12-05T04:42:39;37.75;;;15.18;;
60851;SDS011;48553;50.766;2.900;2022-12-05T04:45:42;40.22;;;15.60;;
60851;SDS011;48553;50.766;2.900;2022-12-05T04:48:45;40.90;;;15.90;;
60851;SDS011;48553;50.766;2.900;2022-12-05T04:51:52;37.63;;;15.75;;
60851;SDS011;48553;50.766;2.900;2022-12-05T04:55:04;42.33;;;15.93;;
60851;SDS011;48553;50.766;2.900;2022-12-05T04:58:14;42.17;;;16.13;;
60851;SDS011;48553;50.766;2.900;2022-12-05T05:01:19;40.72;;;15.00;;
60851;SDS011;48553;50.766;2.900;2022-12-05T05:04:43;38.72;;;15.07;;
60851;SDS011;48553;50.766;2.900;2022-12-05T05:07:47;36.15;;;14.55;;
60851;SDS011;48553;50.766;2.900;2022-12-05T05:11:03;32.38;;;13.85;;
60851;SDS011;48553;50.766;2.900;2022-12-05T05:14:10;39.17;;;15.27;;
60851;SDS011;48553;50.766;2.900;2022-12-05T05:17:10;36.85;;;15.25;;
60851;SDS011;48553;50.766;2.900;2022-12-05T05:20:11;38.20;;;14.73;;
60851;SDS011;48553;50.766;2.900;2022-12-05T05:23:24;36.90;;;13.93;;
60851;SDS011;48553;50.766;2.900;2022-12-05T05:26:24;39.97;;;14.93;;
60851;SDS011;48553;50.766;2.900;2022-12-05T05:29:26;33.88;;;13.98;;
60851;SDS011;48553;50.766;2.900;2022-12-05T05:32:26;35.33;;;14.18;;
60851;SDS011;48553;50.766;2.900;2022-12-05T05:35:26;35.38;;;14.32;;
60851;SDS011;48553;50.766;2.900;2022-12-05T05:38:27;35.92;;;14.85;;
60851;SDS011;48553;50.766;2.900;2022-12-05T05:41:31;36.33;;;14.40;;
60851;SDS011;48553;50.766;2.900;2022-12-05T05:44:33;34.38;;;13.98;;
60851;SDS011;48553;50.766;2.900;2022-12-05T05:47:33;36.30;;;13.90;;
60851;SDS011;48553;50.766;2.900;2022-12-05T05:50:34;40.70;;;14.43;;
60851;SDS011;48553;50.766;2.900;2022-12-05T05:53:35;33.45;;;13.77;;
60851;SDS011;48553;50.766;2.900;2022-12-05T05:56:36;32.60;;;13.80;;
60851;SDS011;48553;50.766;2.900;2022-12-05T05:59:38;34.20;;;13.63;;
60851;SDS011;48553;50.766;2.900;2022-12-05T06:02:38;39.17;;;14.30;;
60851;SDS011;48553;50.766;2.900;2022-12-05T06:05:39;34.65;;;13.60;;
60851;SDS011;48553;50.766;2.900;2022-12-05T06:08:40;30.83;;;12.73;;
60851;SDS011;48553;50.766;2.900;2022-12-05T06:11:42;30.77;;;13.07;;
60851;SDS011;48553;50.766;2.900;2022-12-05T06:14:42;29.65;;;12.77;;
60851;SDS011;48553;50.766;2.900;2022-12-05T06:17:42;34.55;;;13.68;;
60851;SDS011;48553;50.766;2.900;2022-12-05T06:20:50;33.58;;;13.43;;
60851;SDS011;48553;50.766;2.900;2022-12-05T06:23:55;33.33;;;13.40;;
60851;SDS011;48553;50.766;2.900;2022-12-05T06:26:55;31.75;;;13.88;;
60851;SDS011;48553;50.766;2.900;2022-12-05T06:29:56;32.88;;;12.93;;
60851;SDS011;48553;50.766;2.900;2022-12-05T06:32:56;27.88;;;12.48;;
60851;SDS011;48553;50.766;2.900;2022-12-05T06:36:04;30.45;;;12.90;;
60851;SDS011;48553;50.766;2.900;2022-12-05T06:39:06;29.40;;;12.88;;
60851;SDS011;48553;50.766;2.900;2022-12-05T06:42:06;30.83;;;12.18;;
60851;SDS011;48553;50.766;2.900;2022-12-05T06:45:07;26.42;;;11.98;;
60851;SDS011;48553;50.766;2.900;2022-12-05T06:48:08;31.42;;;11.75;;
60851;SDS011;48553;50.766;2.900;2022-12-05T06:51:09;30.30;;;12.20;;
60851;SDS011;48553;50.766;2.900;2022-12-05T06:54:11;29.02;;;11.68;;
60851;SDS011;48553;50.766;2.900;2022-12-05T06:57:12;27.30;;;11.88;;
60851;SDS011;48553;50.766;2.900;2022-12-05T07:00:13;27.88;;;12.40;;
60851;SDS011;48553;50.766;2.900;2022-12-05T07:03:32;26.38;;;11.65;;
60851;SDS011;48553;50.766;2.900;2022-12-05T07:06:33;29.00;;;11.82;;
60851;SDS011;48553;50.766;2.900;2022-12-05T07:09:34;32.80;;;12.50;;
60851;SDS011;48553;50.766;2.900;2022-12-05T07:12:53;25.45;;;10.88;;
60851;SDS011;48553;50.766;2.900;2022-12-05T07:15:53;27.65;;;11.45;;
60851;SDS011;48553;50.766;2.900;2022-12-05T07:18:53;31.70;;;12.32;;
60851;SDS011;48553;50.766;2.900;2022-12-05T07:21:55;30.00;;;12.25;;
60851;SDS011;48553;50.766;2.900;2022-12-05T07:24:55;29.90;;;12.55;;
60851;SDS011;48553;50.766;2.900;2022-12-05T07:27:56;27.15;;;11.60;;
60851;SDS011;48553;50.766;2.900;2022-12-05T07:31:04;31.38;;;11.48;;
60851;SDS011;48553;50.766;2.900;2022-12-05T07:34:05;29.77;;;11.95;;
60851;SDS011;48553;50.766;2.900;2022-12-05T07:37:06;29.40;;;12.25;;
60851;SDS011;48553;50.766;2.900;2022-12-05T07:40:07;29.98;;;12.90;;
60851;SDS011;48553;50.766;2.900;2022-12-05T07:43:08;27.35;;;12.18;;
60851;SDS011;48553;50.766;2.900;2022-12-05T07:46:08;32.60;;;13.40;;
60851;SDS011;48553;50.766;2.900;2022-12-05T07:49:12;29.25;;;12.40;;
60851;SDS011;48553;50.766;2.900;2022-12-05T07:52:14;31.73;;;12.93;;
60851;SDS011;48553;50.766;2.900;2022-12-05T07:55:15;30.60;;;12.65;;
60851;SDS011;48553;50.766;2.900;2022-12-05T07:58:15;30.92;;;13.27;;
60851;SDS011;48553;50.766;2.900;2022-12-05T08:01:18;29.63;;;13.10;;
60851;SDS011;48553;50.766;2.900;2022-12-05T08:04:22;30.55;;;12.98;;
60851;SDS011;48553;50.766;2.900;2022-12-05T08:07:23;31.48;;;13.05;;
60851;SDS011;48553;50.766;2.900;2022-12-05T08:10:23;31.80;;;12.82;;
60851;SDS011;48553;50.766;2.900;2022-12-05T08:13:24;28.27;;;12.30;;
60851;SDS011;48553;50.766;2.900;2022-12-05T08:16:26;31.42;;;12.75;;
60851;SDS011;48553;50.766;2.900;2022-12-05T08:19:27;30.25;;;12.65;;
60851;SDS011;48553;50.766;2.900;2022-12-05T08:22:28;27.38;;;11.73;;
60851;SDS011;48553;50.766;2.900;2022-12-05T08:25:28;27.83;;;12.63;;
60851;SDS011;48553;50.766;2.900;2022-12-05T08:28:29;30.80;;;12.82;;
60851;SDS011;48553;50.766;2.900;2022-12-05T08:31:32;32.28;;;13.43;;
60851;SDS011;48553;50.766;2.900;2022-12-05T08:34:34;30.73;;;11.93;;
60851;SDS011;48553;50.766;2.900;2022-12-05T08:37:35;31.42;;;12.43;;
60851;SDS011;48553;50.766;2.900;2022-12-05T08:40:35;30.17;;;12.93;;
60851;SDS011;48553;50.766;2.900;2022-12-05T08:43:35;31.90;;;13.18;;
60851;SDS011;48553;50.766;2.900;2022-12-05T08:46:36;32.67;;;13.38;;
60851;SDS011;48553;50.766;2.900;2022-12-05T08:49:37;32.78;;;12.93;;
60851;SDS011;48553;50.766;2.900;2022-12-05T08:52:38;30.95;;;12.88;;
60851;SDS011;48553;50.766;2.900;2022-12-05T08:55:38;32.30;;;13.70;;
60851;SDS011;48553;50.766;2.900;2022-12-05T08:58:39;27.83;;;12.73;;
60851;SDS011;48553;50.766;2.900;2022-12-05T09:01:40;29.55;;;12.73;;
60851;SDS011;48553;50.766;2.900;2022-12-05T09:04:41;31.35;;;13.40;;
60851;SDS011;48553;50.766;2.900;2022-12-05T09:07:41;34.50;;;13.98;;
60851;SDS011;48553;50.766;2.900;2022-12-05T09:10:42;29.73;;;13.38;;
60851;SDS011;48553;50.766;2.900;2022-12-05T09:13:42;29.45;;;13.90;;
60851;SDS011;48553;50.766;2.900;2022-12-05T09:16:43;31.50;;;13.40;;
60851;SDS011;48553;50.766;2.900;2022-12-05T09:19:45;31.38;;;13.43;;
60851;SDS011;48553;50.766;2.900;2022-12-05T09:22:45;32.70;;;13.75;;
60851;SDS011;48553;50.766;2.900;2022-12-05T09:25:51;34.45;;;13.77;;
60851;SDS011;48553;50.766;2.900;2022-12-05T09:28:55;34.20;;;13.85;;
60851;SDS011;48553;50.766;2.900;2022-12-05T09:31:56;33.75;;;14.60;;
60851;SDS011;48553;50.766;2.900;2022-12-05T09:34:56;31.08;;;13.90;;
60851;SDS011;48553;50.766;2.900;2022-12-05T09:37:57;30.30;;;13.25;;
60851;SDS011;48553;50.766;2.900;2022-12-05T09:50:48;34.45;;;13.55;;
60851;SDS011;48553;50.766;2.900;2022-12-05T09:53:51;33.88;;;14.02;;
60851;SDS011;48553;50.766;2.900;2022-12-05T09:56:52;32.47;;;14.40;;
60851;SDS011;48553;50.766;2.900;2022-12-05T09:59:53;35.13;;;13.85;;
60851;SDS011;48553;50.766;2.900;2022-12-05T10:15:58;35.03;;;14.35;;
60851;SDS011;48553;50.766;2.900;2022-12-05T10:19:04;33.97;;;14.52;;
60851;SDS011;48553;50.766;2.900;2022-12-05T10:22:13;34.00;;;14.25;;
60851;SDS011;48553;50.766;2.900;2022-12-05T10:25:18;35.67;;;14.50;;
60851;SDS011;48553;50.766;2.900;2022-12-05T10:28:33;35.38;;;14.80;;
60851;SDS011;48553;50.766;2.900;2022-12-05T10:31:39;36.80;;;15.30;;
60851;SDS011;48553;50.766;2.900;2022-12-05T10:34:42;40.15;;;15.55;;
60851;SDS011;48553;50.766;2.900;2022-12-05T10:37:55;37.65;;;15.93;;
60851;SDS011;48553;50.766;2.900;2022-12-05T10:40:58;37.63;;;16.38;;
60851;SDS011;48553;50.766;2.900;2022-12-05T10:44:04;41.45;;;16.42;;
60851;SDS011;48553;50.766;2.900;2022-12-05T10:47:04;43.75;;;16.77;;
60851;SDS011;48553;50.766;2.900;2022-12-05T10:53:41;47.05;;;17.70;;
60851;SDS011;48553;50.766;2.900;2022-12-05T10:56:45;46.25;;;16.70;;
60851;SDS011;48553;50.766;2.900;2022-12-05T10:59:47;44.67;;;17.38;;
60851;SDS011;48553;50.766;2.900;2022-12-05T11:02:48;44.85;;;17.80;;
60851;SDS011;48553;50.766;2.900;2022-12-05T11:05:49;45.30;;;17.25;;
60851;SDS011;48553;50.766;2.900;2022-12-05T11:08:51;49.17;;;17.58;;
60851;SDS011;48553;50.766;2.900;2022-12-05T11:21:24;39.17;;;16.40;;
60851;SDS011;48553;50.766;2.900;2022-12-05T11:24:32;46.78;;;16.73;;
60851;SDS011;48553;50.766;2.900;2022-12-05T11:27:34;45.63;;;16.50;;
60851;SDS011;48553;50.766;2.900;2022-12-05T11:30:35;41.75;;;16.48;;
60851;SDS011;48553;50.766;2.900;2022-12-05T11:33:35;43.90;;;16.63;;
60851;SDS011;48553;50.766;2.900;2022-12-05T11:36:41;40.45;;;16.25;;
60851;SDS011;48553;50.766;2.900;2022-12-05T11:39:46;41.83;;;16.92;;
60851;SDS011;48553;50.766;2.900;2022-12-05T11:56:42;42.40;;;16.77;;
60851;SDS011;48553;50.766;2.900;2022-12-05T12:09:38;42.30;;;15.77;;
60851;SDS011;48553;50.766;2.900;2022-12-05T12:12:53;38.75;;;14.75;;
60851;SDS011;48553;50.766;2.900;2022-12-05T12:16:09;41.33;;;15.88;;
60851;SDS011;48553;50.766;2.900;2022-12-05T12:19:25;44.63;;;16.50;;
60851;SDS011;48553;50.766;2.900;2022-12-05T12:22:46;39.65;;;15.50;;
60851;SDS011;48553;50.766;2.900;2022-12-05T12:26:05;41.20;;;15.52;;
60851;SDS011;48553;50.766;2.900;2022-12-05T12:35:48;41.85;;;15.60;;
60851;SDS011;48553;50.766;2.900;2022-12-05T12:39:39;40.22;;;15.65;;
60851;SDS011;48553;50.766;2.900;2022-12-05T12:52:43;41.90;;;15.73;;
60851;SDS011;48553;50.766;2.900;2022-12-05T12:59:45;40.38;;;15.45;;
60851;SDS011;48553;50.766;2.900;2022-12-05T13:06:23;37.45;;;15.88;;
60851;SDS011;48553;50.766;2.900;2022-12-05T13:09:35;39.03;;;15.13;;
60851;SDS011;48553;50.766;2.900;2022-12-05T13:12:40;40.17;;;15.40;;
60851;SDS011;48553;50.766;2.900;2022-12-05T13:15:52;39.42;;;15.82;;
60851;SDS011;48553;50.766;2.900;2022-12-05T13:18:55;38.88;;;15.02;;
60851;SDS011;48553;50.766;2.900;2022-12-05T13:21:57;38.25;;;15.77;;
60851;SDS011;48553;50.766;2.900;2022-12-05T13:24:58;36.08;;;15.55;;
60851;SDS011;48553;50.766;2.900;2022-12-05T13:28:00;34.72;;;15.45;;
60851;SDS011;48553;50.766;2.900;2022-12-05T13:31:03;38.05;;;15.43;;
60851;SDS011;48553;50.766;2.900;2022-12-05T13:34:21;41.90;;;16.20;;
60851;SDS011;48553;50.766;2.900;2022-12-05T13:37:33;45.20;;;16.00;;
60851;SDS011;48553;50.766;2.900;2022-12-05T13:40:52;36.53;;;15.02;;
60851;SDS011;48553;50.766;2.900;2022-12-05T13:44:12;33.08;;;13.95;;
60851;SDS011;48553;50.766;2.900;2022-12-05T13:54:25;35.40;;;15.00;;
60851;SDS011;48553;50.766;2.900;2022-12-05T14:00:38;32.53;;;12.77;;
60851;SDS011;48553;50.766;2.900;2022-12-05T14:09:50;37.03;;;13.70;;
60851;SDS011;48553;50.766;2.900;2022-12-05T14:22:31;32.75;;;13.05;;
60851;SDS011;48553;50.766;2.900;2022-12-05T14:32:35;37.38;;;13.13;;
60851;SDS011;48553;50.766;2.900;2022-12-05T14:35:43;34.42;;;13.60;;
60851;SDS011;48553;50.766;2.900;2022-12-05T14:38:47;34.70;;;13.60;;
60851;SDS011;48553;50.766;2.900;2022-12-05T14:41:54;32.80;;;13.25;;
60851;SDS011;48553;50.766;2.900;2022-12-05T14:44:59;32.53;;;13.80;;
60851;SDS011;48553;50.766;2.900;2022-12-05T14:48:22;32.83;;;13.15;;
60851;SDS011;48553;50.766;2.900;2022-12-05T14:54:33;35.65;;;13.48;;
60851;SDS011;48553;50.766;2.900;2022-12-05T14:57:34;33.33;;;14.25;;
60851;SDS011;48553;50.766;2.900;2022-12-05T15:00:43;36.38;;;13.77;;
60851;SDS011;48553;50.766;2.900;2022-12-05T15:06:55;41.67;;;14.75;;
60851;SDS011;48553;50.766;2.900;2022-12-05T15:10:04;36.45;;;15.38;;
60851;SDS011;48553;50.766;2.900;2022-12-05T15:13:13;33.42;;;13.93;;
60851;SDS011;48553;50.766;2.900;2022-12-05T15:16:18;36.03;;;15.30;;
60851;SDS011;48553;50.766;2.900;2022-12-05T15:19:22;33.53;;;13.90;;
60851;SDS011;48553;50.766;2.900;2022-12-05T15:22:28;35.70;;;14.60;;
60851;SDS011;48553;50.766;2.900;2022-12-05T15:25:35;35.65;;;14.75;;
60851;SDS011;48553;50.766;2.900;2022-12-05T15:28:36;33.97;;;14.23;;
60851;SDS011;48553;50.766;2.900;2022-12-05T15:31:58;33.88;;;13.77;;
60851;SDS011;48553;50.766;2.900;2022-12-05T15:35:05;33.88;;;14.02;;
60851;SDS011;48553;50.766;2.900;2022-12-05T15:38:14;34.25;;;13.93;;
60851;SDS011;48553;50.766;2.900;2022-12-05T15:41:26;32.85;;;14.15;;
60851;SDS011;48553;50.766;2.900;2022-12-05T15:44:27;35.28;;;13.98;;
60851;SDS011;48553;50.766;2.900;2022-12-05T15:47:28;33.50;;;13.90;;
60851;SDS011;48553;50.766;2.900;2022-12-05T15:53:51;33.72;;;13.88;;
60851;SDS011;48553;50.766;2.900;2022-12-05T15:57:06;31.38;;;13.40;;
60851;SDS011;48553;50.766;2.900;2022-12-05T16:00:15;31.90;;;13.48;;
60851;SDS011;48553;50.766;2.900;2022-12-05T16:03:19;31.08;;;12.73;;
60851;SDS011;48553;50.766;2.900;2022-12-05T16:10:11;30.75;;;13.18;;
60851;SDS011;48553;50.766;2.900;2022-12-05T16:13:13;30.15;;;13.38;;
60851;SDS011;48553;50.766;2.900;2022-12-05T16:16:15;31.75;;;13.38;;
60851;SDS011;48553;50.766;2.900;2022-12-05T16:19:21;30.38;;;13.20;;
60851;SDS011;48553;50.766;2.900;2022-12-05T16:22:23;29.63;;;13.07;;
60851;SDS011;48553;50.766;2.900;2022-12-05T16:25:32;30.80;;;13.07;;
60851;SDS011;48553;50.766;2.900;2022-12-05T16:28:36;29.67;;;13.10;;
60851;SDS011;48553;50.766;2.900;2022-12-05T16:31:43;29.38;;;13.10;;
60851;SDS011;48553;50.766;2.900;2022-12-05T16:34:44;30.42;;;12.90;;
60851;SDS011;48553;50.766;2.900;2022-12-05T16:37:44;30.85;;;12.65;;
60851;SDS011;48553;50.766;2.900;2022-12-05T16:43:45;28.52;;;13.13;;
60851;SDS011;48553;50.766;2.900;2022-12-05T16:46:46;31.75;;;12.68;;
60851;SDS011;48553;50.766;2.900;2022-12-05T16:49:46;29.65;;;12.65;;
60851;SDS011;48553;50.766;2.900;2022-12-05T16:52:47;29.35;;;12.30;;
60851;SDS011;48553;50.766;2.900;2022-12-05T16:55:48;29.65;;;13.10;;
60851;SDS011;48553;50.766;2.900;2022-12-05T16:58:49;27.60;;;12.38;;
60851;SDS011;48553;50.766;2.900;2022-12-05T17:01:49;31.40;;;13.27;;
60851;SDS011;48553;50.766;2.900;2022-12-05T17:04:51;32.83;;;13.63;;
60851;SDS011;48553;50.766;2.900;2022-12-05T17:07:51;28.73;;;12.07;;
60851;SDS011;48553;50.766;2.900;2022-12-05T17:10:52;29.85;;;12.80;;
60851;SDS011;48553;50.766;2.900;2022-12-05T17:13:53;28.27;;;12.85;;
60851;SDS011;48553;50.766;2.900;2022-12-05T17:16:54;29.15;;;12.70;;
60851;SDS011;48553;50.766;2.900;2022-12-05T17:19:55;28.48;;;12.70;;
60851;SDS011;48553;50.766;2.900;2022-12-05T17:22:55;27.55;;;12.52;;
60851;SDS011;48553;50.766;2.900;2022-12-05T17:25:56;28.20;;;12.68;;
60851;SDS011;48553;50.766;2.900;2022-12-05T17:28:57;31.20;;;13.43;;
60851;SDS011;48553;50.766;2.900;2022-12-05T17:31:58;28.77;;;12.10;;
60851;SDS011;48553;50.766;2.900;2022-12-05T17:34:58;30.77;;;12.98;;
60851;SDS011;48553;50.766;2.900;2022-12-05T17:37:59;30.95;;;12.50;;
60851;SDS011;48553;50.766;2.900;2022-12-05T17:40:59;26.70;;;12.68;;
60851;SDS011;48553;50.766;2.900;2022-12-05T17:44:00;28.52;;;13.07;;
60851;SDS011;48553;50.766;2.900;2022-12-05T17:47:00;29.40;;;13.35;;
60851;SDS011;48553;50.766;2.900;2022-12-05T17:50:02;30.17;;;13.50;;
60851;SDS011;48553;50.766;2.900;2022-12-05T17:53:03;29.13;;;13.18;;
60851;SDS011;48553;50.766;2.900;2022-12-05T17:56:04;32.05;;;13.38;;
60851;SDS011;48553;50.766;2.900;2022-12-05T17:59:04;28.48;;;12.75;;
60851;SDS011;48553;50.766;2.900;2022-12-05T18:02:05;34.03;;;13.77;;
60851;SDS011;48553;50.766;2.900;2022-12-05T18:05:05;30.52;;;13.02;;
60851;SDS011;48553;50.766;2.900;2022-12-05T18:08:06;31.85;;;13.45;;
60851;SDS011;48553;50.766;2.900;2022-12-05T18:11:08;30.08;;;13.55;;
60851;SDS011;48553;50.766;2.900;2022-12-05T18:14:09;31.63;;;14.18;;
60851;SDS011;48553;50.766;2.900;2022-12-05T18:17:09;33.05;;;13.95;;
60851;SDS011;48553;50.766;2.900;2022-12-05T18:20:10;39.15;;;15.90;;
60851;SDS011;48553;50.766;2.900;2022-12-05T18:23:13;33.90;;;15.50;;
60851;SDS011;48553;50.766;2.900;2022-12-05T18:26:13;35.88;;;14.70;;
60851;SDS011;48553;50.766;2.900;2022-12-05T18:29:14;35.05;;;15.50;;
60851;SDS011;48553;50.766;2.900;2022-12-05T18:32:15;35.70;;;14.75;;
60851;SDS011;48553;50.766;2.900;2022-12-05T18:35:16;35.47;;;15.80;;
60851;SDS011;48553;50.766;2.900;2022-12-05T18:38:17;33.35;;;14.27;;
60851;SDS011;48553;50.766;2.900;2022-12-05T18:41:17;35.10;;;14.57;;
60851;SDS011;48553;50.766;2.900;2022-12-05T18:44:18;33.13;;;14.18;;
60851;SDS011;48553;50.766;2.900;2022-12-05T18:47:19;32.60;;;14.82;;
60851;SDS011;48553;50.766;2.900;2022-12-05T18:50:19;31.55;;;14.23;;
60851;SDS011;48553;50.766;2.900;2022-12-05T18:53:20;27.58;;;13.68;;
60851;SDS011;48553;50.766;2.900;2022-12-05T18:56:28;31.38;;;13.75;;
60851;SDS011;48553;50.766;2.900;2022-12-05T18:59:30;32.08;;;13.73;;
60851;SDS011;48553;50.766;2.900;2022-12-05T19:02:30;32.40;;;13.60;;
60851;SDS011;48553;50.766;2.900;2022-12-05T19:05:30;31.02;;;13.15;;
60851;SDS011;48553;50.766;2.900;2022-12-05T19:08:31;31.10;;;13.82;;
60851;SDS011;48553;50.766;2.900;2022-12-05T19:11:31;32.22;;;13.90;;
60851;SDS011;48553;50.766;2.900;2022-12-05T19:14:33;30.27;;;14.13;;
60851;SDS011;48553;50.766;2.900;2022-12-05T19:17:34;28.38;;;13.18;;
60851;SDS011;48553;50.766;2.900;2022-12-05T19:20:34;32.67;;;14.00;;
60851;SDS011;48553;50.766;2.900;2022-12-05T19:23:35;32.83;;;14.02;;
60851;SDS011;48553;50.766;2.900;2022-12-05T19:26:35;28.27;;;13.60;;
60851;SDS011;48553;50.766;2.900;2022-12-05T19:29:36;29.98;;;13.25;;
60851;SDS011;48553;50.766;2.900;2022-12-05T19:32:36;31.67;;;13.55;;
60851;SDS011;48553;50.766;2.900;2022-12-05T19:35:37;29.13;;;13.57;;
60851;SDS011;48553;50.766;2.900;2022-12-05T19:38:38;30.08;;;14.80;;
60851;SDS011;48553;50.766;2.900;2022-12-05T19:41:40;31.85;;;14.70;;
60851;SDS011;48553;50.766;2.900;2022-12-05T19:44:41;29.10;;;13.98;;
60851;SDS011;48553;50.766;2.900;2022-12-05T19:47:41;35.30;;;14.45;;
60851;SDS011;48553;50.766;2.900;2022-12-05T19:50:42;29.70;;;13.93;;
60851;SDS011;48553;50.766;2.900;2022-12-05T19:53:43;28.15;;;13.13;;
60851;SDS011;48553;50.766;2.900;2022-12-05T19:56:44;33.15;;;13.73;;
60851;SDS011;48553;50.766;2.900;2022-12-05T19:59:44;28.73;;;13.48;;
60851;SDS011;48553;50.766;2.900;2022-12-05T20:02:45;30.60;;;13.32;;
60851;SDS011;48553;50.766;2.900;2022-12-05T20:05:54;29.90;;;13.40;;
60851;SDS011;48553;50.766;2.900;2022-12-05T20:08:57;31.50;;;14.10;;
60851;SDS011;48553;50.766;2.900;2022-12-05T20:11:58;29.77;;;13.50;;
60851;SDS011;48553;50.766;2.900;2022-12-05T20:14:58;31.92;;;13.82;;
60851;SDS011;48553;50.766;2.900;2022-12-05T20:17:58;29.38;;;12.98;;
60851;SDS011;48553;50.766;2.900;2022-12-05T20:20:59;29.60;;;12.48;;
60851;SDS011;48553;50.766;2.900;2022-12-05T20:24:01;27.40;;;13.07;;
60851;SDS011;48553;50.766;2.900;2022-12-05T20:27:02;25.75;;;12.98;;
60851;SDS011;48553;50.766;2.900;2022-12-05T20:30:05;29.02;;;11.88;;
60851;SDS011;48553;50.766;2.900;2022-12-05T20:33:06;29.13;;;12.77;;
60851;SDS011;48553;50.766;2.900;2022-12-05T20:36:11;27.92;;;13.07;;
60851;SDS011;48553;50.766;2.900;2022-12-05T20:39:13;26.20;;;12.07;;